22N

Jake Arner Memorial Airport

Lehighton, Pennsylvania, USA
METAR K22N 210956Z AUTO 29012G18KT 268V328 10SM SCT033 M15/M22 A2999 RMK AO2
Observed Flight Rules
Jan-21 @ 09:56 UTC (18 minutes ago) Visual Flight Rules
Wind Visibility Clouds
290° at 12 knots
 Gusting to 18 knots
10 miles
  • Scattered at 3,300' AGL
Temperatures Readings
Current -15°C / 5°F
Dewpoint -22°C / -8°F
Humidity 55%
Altimeter 29.99" Hg
Pressure 1015.62 hPa
Elevation 163
METAR K22N 210956Z AUTO 29012G18KT 268V328 10SM SCT033 M15/M22 A2999 RMK AO2
Observed Flight Rules
Jan-21 @ 09:56 UTC
(18 minutes ago)
VFR
Wind Visibility
290° at 12 knots
 Gusting to 18 knots
10 miles
Clouds
  • Scattered at 3,300' AGL
Temperature Dewpoint
-15°C / 5°F -22°C / -8°F
Humidity Altimeter Pressure
55% 29.99" Hg 1015.62 hPa